Thunderstorms From: 15-12-2017 06:00 Until: 16-12-2017 06:00 warning for: Thunderstorms Level: Yellow info button

Although rather usual in this region, locally or potentially dangerous phenomena are expected. (such as local winds, summer thunderstorms, rising streams or high waves) Be aware and pay attention to the latest weather updates, especially if you carry out activities exposed to weather or close to a stream or shoreline. 


Meteo18 Weather Cam more information Meteo18 Weather Cam


warning for Thunderstorms more information blitzortung!


Rain radar more information rain snow radar


Visit our other weather sites:

Template documentation
and downloads

And another site



Weather Underground History page Text

Daily Summary for January 19, 2017 Units:  English    Metric   Both
« Previous Day
Next Day »
Daily Weekly Monthly Yearly Custom
  High: Low: Average:
Temperature: 31.8 °F 20.1 °F 25 °F
Dew Point: 24.1 °F 16.7 °F 20.1 °F
Humidity: 88 % 71 % 82 %
Wind Speed: 15 mph 0 mph 4.2 mph
Wind Gust: 16 mph - -
Wind:- - ENE
Pressure: 30.5 in 30.4 in -
Precipitation: 0 in    
Historical Graphs
 
 
Tabular Data for January 19, 2017
Time Temperature Dew Point Pressure Wind Wind Speed Wind Gust Humidity Rainfall Rate (Hourly)
00:02 23.7 °F 19.4 °F 30.4 in Calm   10 mph 83 % 0 in
00:07 23.7 °F 19.4 °F 30.4 in NNE 1 mph 6 mph 83 % 0 in
00:12 23.5 °F 19.2 °F 30.4 in North 4 mph 5 mph 83 % 0 in
00:17 23.5 °F 19.2 °F 30.4 in NNW 2 mph 5 mph 83 % 0 in
00:22 23.5 °F 19.2 °F 30.4 in North 2 mph 5 mph 83 % 0 in
00:27 23.4 °F 19 °F 30.4 in Calm   5 mph 83 % 0 in
00:32 23.4 °F 19.2 °F 30.4 in North 3 mph 5 mph 84 % 0 in
00:37 23.4 °F 19.2 °F 30.4 in NE 2 mph 5 mph 84 % 0 in
00:42 23.4 °F 19.2 °F 30.4 in NE 1 mph 4 mph 84 % 0 in
00:47 23.2 °F 19 °F 30.4 in NNW 2 mph 4 mph 84 % 0 in
00:52 23.2 °F 19 °F 30.4 in Calm   4 mph 84 % 0 in
00:57 23.2 °F 19 °F 30.4 in NNW 1 mph 7 mph 84 % 0 in
01:02 23.4 °F 19.2 °F 30.4 in North 2 mph 7 mph 84 % 0 in
01:07 23.4 °F 19 °F 30.4 in North 4 mph 7 mph 83 % 0 in
01:12 23.4 °F 19 °F 30.4 in NNE 3 mph 7 mph 83 % 0 in
01:17 23.5 °F 19.2 °F 30.4 in NE 1 mph 12 mph 83 % 0 in
01:22 23.4 °F 19 °F 30.4 in NNW 3 mph 12 mph 83 % 0 in
01:27 23.2 °F 18.9 °F 30.4 in NNE 7 mph 8 mph 83 % 0 in
01:32 23.4 °F 19 °F 30.4 in North 5 mph 9 mph 83 % 0 in
01:37 23.5 °F 19.2 °F 30.4 in ENE 1 mph 9 mph 83 % 0 in
01:42 23.5 °F 18.9 °F 30.4 in NNE 5 mph 9 mph 82 % 0 in
01:47 23.4 °F 18.7 °F 30.4 in North 3 mph 9 mph 82 % 0 in
01:52 23.4 °F 18.7 °F 30.4 in NE 6 mph 8 mph 82 % 0 in
01:57 23.4 °F 18.7 °F 30.4 in NNE 3 mph 10 mph 82 % 0 in
02:02 23.4 °F 18.7 °F 30.4 in NE 3 mph 11 mph 82 % 0 in
02:07 23.4 °F 18.7 °F 30.4 in NE 10 mph 11 mph 82 % 0 in
02:12 23.4 °F 18.7 °F 30.4 in NE 12 mph 14 mph 82 % 0 in
02:17 23.2 °F 18.5 °F 30.4 in NNE 8 mph 14 mph 82 % 0 in
02:22 23.2 °F 18.5 °F 30.4 in NE 6 mph 14 mph 82 % 0 in
02:27 23.2 °F 18.5 °F 30.4 in NNE 10 mph 14 mph 82 % 0 in
02:32 23.4 °F 18.7 °F 30.4 in NNE 7 mph 14 mph 82 % 0 in
02:37 23.4 °F 18.7 °F 30.4 in North 1 mph 14 mph 82 % 0 in
02:42 23.4 °F 18.7 °F 30.4 in North 5 mph 13 mph 82 % 0 in
02:47 23.2 °F 18.5 °F 30.4 in NNE 3 mph 13 mph 82 % 0 in
02:52 23.2 °F 18.5 °F 30.4 in NNE 12 mph 14 mph 82 % 0 in
02:57 23.2 °F 18.5 °F 30.4 in NE 4 mph 15 mph 82 % 0 in
03:02 23.2 °F 18.5 °F 30.4 in NE 9 mph 15 mph 82 % 0 in
03:07 23 °F 18.3 °F 30.4 in NNE 4 mph 13 mph 82 % 0 in
03:12 23 °F 18.3 °F 30.4 in NNE 10 mph 14 mph 82 % 0 in
03:17 22.8 °F 18.1 °F 30.4 in NNE 8 mph 16 mph 82 % 0 in
03:22 22.8 °F 18.1 °F 30.4 in NE 6 mph 16 mph 82 % 0 in
03:27 22.8 °F 18.1 °F 30.4 in NNE 12 mph 16 mph 82 % 0 in
03:32 22.6 °F 18 °F 30.4 in NNE 5 mph 15 mph 82 % 0 in
03:37 22.6 °F 18.3 °F 30.4 in NNW 5 mph 14 mph 83 % 0 in
03:42 22.6 °F 18.3 °F 30.4 in NNE 3 mph 14 mph 83 % 0 in
03:47 22.5 °F 18.1 °F 30.4 in ENE 6 mph 12 mph 83 % 0 in
03:52 22.5 °F 18.1 °F 30.4 in NE 7 mph 14 mph 83 % 0 in
03:57 22.5 °F 18.1 °F 30.4 in NNE 13 mph 14 mph 83 % 0 in
04:02 22.5 °F 18.1 °F 30.4 in NE 4 mph 14 mph 83 % 0 in
04:07 22.3 °F 18 °F 30.4 in NNE 8 mph 15 mph 83 % 0 in
04:12 22.3 °F 18 °F 30.4 in North 3 mph 14 mph 83 % 0 in
04:17 22.3 °F 18 °F 30.4 in NNE 5 mph 12 mph 83 % 0 in
04:22 22.3 °F 18 °F 30.4 in ENE 6 mph 12 mph 83 % 0 in
04:27 22.1 °F 17.8 °F 30.4 in ENE 4 mph 12 mph 83 % 0 in
04:32 21.9 °F 17.6 °F 30.4 in North 7 mph 12 mph 83 % 0 in
04:37 21.9 °F 17.6 °F 30.4 in NE 6 mph 14 mph 83 % 0 in
04:42 21.9 °F 17.6 °F 30.4 in ENE 9 mph 14 mph 83 % 0 in
04:47 21.9 °F 17.6 °F 30.4 in NNE 13 mph 13 mph 83 % 0 in
04:52 21.9 °F 17.6 °F 30.4 in NE 12 mph 13 mph 83 % 0 in
04:57 21.7 °F 17.6 °F 30.4 in NNE 9 mph 15 mph 84 % 0 in
05:02 21.7 °F 17.6 °F 30.4 in NE 7 mph 15 mph 84 % 0 in
05:12 21.6 °F 17.4 °F 30.4 in NNE 7 mph 13 mph 84 % 0 in
05:17 21.6 °F 17.4 °F 30.4 in NE 9 mph 12 mph 84 % 0 in
05:22 21.6 °F 17.4 °F 30.4 in NNW 6 mph 12 mph 84 % 0 in
05:27 21.6 °F 17.4 °F 30.4 in NE 2 mph 14 mph 84 % 0 in
05:32 21.4 °F 17.2 °F 30.4 in NNE 11 mph 14 mph 84 % 0 in
05:37 21.4 °F 17.2 °F 30.4 in NE 4 mph 16 mph 84 % 0 in
05:42 21.4 °F 17.2 °F 30.4 in NNE 8 mph 16 mph 84 % 0 in
05:47 21.4 °F 17.2 °F 30.4 in North 11 mph 14 mph 84 % 0 in
05:52 21.4 °F 17.2 °F 30.4 in North 3 mph 14 mph 84 % 0 in
05:57 21.2 °F 17.1 °F 30.4 in NNE 15 mph 15 mph 84 % 0 in
06:02 21.2 °F 17.1 °F 30.4 in NE 8 mph 15 mph 84 % 0 in
06:12 21 °F 16.9 °F 30.4 in NNE 5 mph 16 mph 84 % 0 in
06:17 20.8 °F 17.1 °F 30.4 in NE 6 mph 14 mph 85 % 0 in
06:22 20.8 °F 17.1 °F 30.4 in NE 6 mph 14 mph 85 % 0 in
06:27 20.7 °F 16.9 °F 30.4 in NE 8 mph 11 mph 85 % 0 in
06:32 20.7 °F 16.9 °F 30.4 in NNE 9 mph 11 mph 85 % 0 in
06:37 20.7 °F 16.9 °F 30.4 in NNE 9 mph 13 mph 85 % 0 in
06:42 20.7 °F 16.9 °F 30.4 in NNE 5 mph 13 mph 85 % 0 in
06:47 20.7 °F 16.9 °F 30.4 in NE 10 mph 13 mph 85 % 0 in
06:52 20.5 °F 16.7 °F 30.4 in ENE 5 mph 13 mph 85 % 0 in
06:57 20.5 °F 16.7 °F 30.4 in NE 12 mph 12 mph 85 % 0 in
07:02 20.5 °F 16.9 °F 30.4 in NNE 8 mph 12 mph 86 % 0 in
07:07 20.5 °F 16.9 °F 30.4 in NE 7 mph 12 mph 86 % 0 in
07:12 20.3 °F 16.7 °F 30.4 in NNE 6 mph 12 mph 86 % 0 in
07:17 20.1 °F 16.7 °F 30.4 in NNE 7 mph 12 mph 86 % 0 in
07:22 20.1 °F 16.7 °F 30.4 in NE 3 mph 12 mph 86 % 0 in
07:32 20.1 °F 16.7 °F 30.4 in NNE 8 mph 13 mph 86 % 0 in
07:37 20.1 °F 16.7 °F 30.4 in NE 3 mph 14 mph 86 % 0 in
07:42 20.1 °F 16.7 °F 30.4 in ENE 9 mph 14 mph 86 % 0 in
07:52 20.3 °F 16.7 °F 30.4 in NE 7 mph 12 mph 86 % 0 in
07:57 20.5 °F 16.9 °F 30.4 in NE 6 mph 14 mph 86 % 0 in
08:02 20.3 °F 16.7 °F 30.4 in NE 7 mph 14 mph 86 % 0 in
08:12 20.5 °F 16.9 °F 30.4 in NNE 6 mph 14 mph 86 % 0 in
08:17 20.3 °F 16.7 °F 30.4 in NE 8 mph 14 mph 86 % 0 in
08:22 20.3 °F 16.7 °F 30.4 in NNE 7 mph 14 mph 86 % 0 in
08:32 20.5 °F 16.9 °F 30.4 in NE 5 mph 15 mph 86 % 0 in
08:42 20.3 °F 16.7 °F 30.4 in NNE 8 mph 14 mph 86 % 0 in
08:47 20.3 °F 16.7 °F 30.4 in NE 5 mph 12 mph 86 % 0 in
08:52 20.5 °F 16.9 °F 30.4 in NE 5 mph 12 mph 86 % 0 in
08:57 20.5 °F 16.9 °F 30.4 in ENE 5 mph 14 mph 86 % 0 in
09:02 20.5 °F 16.9 °F 30.4 in NE 4 mph 14 mph 86 % 0 in
09:12 20.7 °F 17.1 °F 30.4 in NNE 6 mph 12 mph 86 % 0 in
09:17 20.8 °F 17.2 °F 30.4 in NNE 8 mph 13 mph 86 % 0 in
09:22 20.8 °F 17.2 °F 30.4 in NE 3 mph 13 mph 86 % 0 in
09:27 21 °F 17.2 °F 30.4 in NE 4 mph 13 mph 85 % 0 in
09:32 21.2 °F 17.4 °F 30.4 in NE 8 mph 13 mph 85 % 0 in
09:37 21.2 °F 17.4 °F 30.4 in NNE 6 mph 11 mph 85 % 0 in
09:42 21.4 °F 17.6 °F 30.4 in NNE 7 mph 11 mph 85 % 0 in
09:52 21.7 °F 18 °F 30.4 in NE 3 mph 11 mph 85 % 0 in
09:57 21.9 °F 18.1 °F 30.4 in ENE 5 mph 9 mph 85 % 0 in
10:02 21.9 °F 17.8 °F 30.4 in NNE 4 mph 9 mph 84 % 0 in
10:07 22.1 °F 18 °F 30.4 in NE 6 mph 8 mph 84 % 0 in
10:12 22.3 °F 18.1 °F 30.4 in NNE 5 mph 8 mph 84 % 0 in
10:17 22.5 °F 18.3 °F 30.4 in NNE 5 mph 9 mph 84 % 0 in
10:22 22.5 °F 18.3 °F 30.4 in NE 4 mph 9 mph 84 % 0 in
10:27 22.8 °F 18.7 °F 30.4 in NNE 5 mph 9 mph 84 % 0 in
10:37 23.2 °F 19 °F 30.4 in NE 3 mph 9 mph 84 % 0 in
10:42 23.4 °F 18.7 °F 30.4 in NE 5 mph 10 mph 82 % 0 in
10:47 23.5 °F 19.2 °F 30.5 in Calm   10 mph 83 % 0 in
10:52 23.7 °F 19.4 °F 30.5 in NE 1 mph 10 mph 83 % 0 in
10:57 23.9 °F 19.2 °F 30.5 in NNE 1 mph 7 mph 82 % 0 in
11:02 24.1 °F 19.4 °F 30.5 in ENE 2 mph 7 mph 82 % 0 in
11:07 24.3 °F 19.2 °F 30.5 in NE 1 mph 8 mph 81 % 0 in
11:12 24.3 °F 19.2 °F 30.5 in NE 3 mph 9 mph 81 % 0 in
11:17 24.6 °F 19.9 °F 30.5 in NE 3 mph 9 mph 82 % 0 in
11:22 24.6 °F 19.6 °F 30.5 in NNE 5 mph 9 mph 81 % 0 in
11:27 24.6 °F 19.6 °F 30.5 in NE 2 mph 8 mph 81 % 0 in
11:32 25 °F 19.9 °F 30.5 in NE 5 mph 8 mph 81 % 0 in
11:37 25.2 °F 20.5 °F 30.5 in NE 4 mph 8 mph 82 % 0 in
11:42 25.2 °F 19.9 °F 30.4 in NNE 4 mph 8 mph 80 % 0 in
11:47 25.2 °F 19.9 °F 30.4 in NE 3 mph 8 mph 80 % 0 in
11:52 25.5 °F 20.5 °F 30.4 in NE 4 mph 8 mph 81 % 0 in
11:57 25.9 °F 20.8 °F 30.4 in ENE 1 mph 8 mph 81 % 0 in
12:02 26.2 °F 20.8 °F 30.4 in ENE 3 mph 8 mph 80 % 0 in
12:07 26.4 °F 21 °F 30.4 in Calm   7 mph 80 % 0 in
12:12 26.6 °F 21 °F 30.4 in East 3 mph 7 mph 79 % 0 in
12:17 26.8 °F 21.4 °F 30.5 in NE 2 mph 7 mph 80 % 0 in
12:22 27 °F 21.4 °F 30.5 in NE 5 mph 7 mph 79 % 0 in
12:27 27 °F 21.4 °F 30.4 in NNE 6 mph 7 mph 79 % 0 in
12:32 27.1 °F 21.7 °F 30.4 in NE 2 mph 8 mph 80 % 0 in
12:37 27.1 °F 21.6 °F 30.4 in NNE 1 mph 8 mph 79 % 0 in
12:42 27.1 °F 21.2 °F 30.4 in NNE 2 mph 9 mph 78 % 0 in
12:47 27.3 °F 21.4 °F 30.4 in NNE 4 mph 9 mph 78 % 0 in
12:52 27.3 °F 21.4 °F 30.4 in ENE 1 mph 9 mph 78 % 0 in
12:57 27.7 °F 21.7 °F 30.4 in Calm   6 mph 78 % 0 in
13:02 27.9 °F 21.9 °F 30.4 in Calm   6 mph 78 % 0 in
13:07 28.2 °F 21.9 °F 30.4 in NNE 2 mph 6 mph 77 % 0 in
13:12 28.2 °F 21.4 °F 30.4 in Calm   6 mph 75 % 0 in
13:17 28.6 °F 21.9 °F 30.4 in NNE 3 mph 4 mph 76 % 0 in
13:22 28.8 °F 21.9 °F 30.4 in NNW 1 mph 4 mph 75 % 0 in
13:32 29.3 °F 22.1 °F 30.4 in NE 2 mph 4 mph 74 % 0 in
13:37 29.5 °F 22.3 °F 30.4 in Calm   4 mph 74 % 0 in
13:42 29.7 °F 22.5 °F 30.4 in NNE 3 mph 4 mph 74 % 0 in
13:52 30 °F 23 °F 30.4 in NNW 4 mph 9 mph 75 % 0 in
13:57 30.2 °F 23 °F 30.4 in North 4 mph 9 mph 74 % 0 in
14:02 30.4 °F 23.2 °F 30.4 in NW 3 mph 9 mph 74 % 0 in
14:07 30.4 °F 23.2 °F 30.4 in NNE 2 mph 7 mph 74 % 0 in
14:12 30.6 °F 23.2 °F 30.4 in NE 2 mph 7 mph 74 % 0 in
14:17 30.7 °F 23.4 °F 30.4 in North 3 mph 6 mph 74 % 0 in
14:22 30.7 °F 23.2 °F 30.4 in NNE 3 mph 6 mph 73 % 0 in
14:27 30.9 °F 23.4 °F 30.4 in ENE 3 mph 6 mph 73 % 0 in
14:32 30.9 °F 23 °F 30.4 in NE 5 mph 6 mph 72 % 0 in
14:37 30.9 °F 23 °F 30.4 in NNE 7 mph 9 mph 72 % 0 in
14:42 31.1 °F 23.5 °F 30.4 in NNE 2 mph 9 mph 73 % 0 in
14:47 31.3 °F 23.4 °F 30.4 in NE 5 mph 9 mph 72 % 0 in
14:52 31.3 °F 23.4 °F 30.4 in NW 1 mph 8 mph 72 % 0 in
14:57 31.5 °F 23.5 °F 30.4 in NE 6 mph 8 mph 72 % 0 in
15:02 31.3 °F 23 °F 30.4 in NNE 2 mph 8 mph 71 % 0 in
15:07 31.3 °F 23 °F 30.4 in NNE 2 mph 7 mph 71 % 0 in
15:12 31.5 °F 23.9 °F 30.4 in NE 2 mph 7 mph 73 % 0 in
15:17 31.6 °F 23.7 °F 30.4 in North 4 mph 7 mph 72 % 0 in
15:22 31.6 °F 23.7 °F 30.4 in NNE 6 mph 7 mph 72 % 0 in
15:27 31.8 °F 24.1 °F 30.4 in NNE 3 mph 7 mph 73 % 0 in
15:32 31.6 °F 23.7 °F 30.4 in ENE 2 mph 7 mph 72 % 0 in
15:37 31.6 °F 23.9 °F 30.4 in NE 4 mph 8 mph 73 % 0 in
15:42 31.6 °F 23.7 °F 30.4 in NNE 4 mph 8 mph 72 % 0 in
15:52 31.6 °F 23.7 °F 30.4 in WNW 5 mph 10 mph 72 % 0 in
15:57 31.6 °F 23.7 °F 30.4 in NNE 6 mph 10 mph 72 % 0 in
16:02 31.6 °F 23.7 °F 30.4 in NE 3 mph 10 mph 72 % 0 in
16:07 31.6 °F 23.9 °F 30.4 in NNE 6 mph 10 mph 73 % 0 in
16:12 31.6 °F 23.7 °F 30.4 in NE 7 mph 9 mph 72 % 0 in
16:17 31.5 °F 23.9 °F 30.4 in NE 9 mph 12 mph 73 % 0 in
16:22 31.5 °F 24.1 °F 30.4 in NE 6 mph 12 mph 74 % 0 in
16:27 31.3 °F 23.9 °F 30.4 in NNE 7 mph 12 mph 74 % 0 in
16:32 31.1 °F 23.7 °F 30.4 in NNE 11 mph 12 mph 74 % 0 in
16:37 30.9 °F 23.9 °F 30.4 in NNE 5 mph 13 mph 75 % 0 in
16:42 30.9 °F 23.9 °F 30.4 in NNE 11 mph 13 mph 75 % 0 in
16:47 30.7 °F 23.7 °F 30.4 in NE 7 mph 13 mph 75 % 0 in
16:52 30.6 °F 23.9 °F 30.4 in NE 4 mph 12 mph 76 % 0 in
16:57 30.6 °F 23.9 °F 30.4 in NE 3 mph 12 mph 76 % 0 in
17:02 30.4 °F 23.7 °F 30.4 in NE 6 mph 12 mph 76 % 0 in
17:07 30.4 °F 24.1 °F 30.4 in NE 4 mph 10 mph 77 % 0 in
17:12 30.2 °F 23.9 °F 30.4 in NE 6 mph 10 mph 77 % 0 in
17:17 30 °F 23.7 °F 30.4 in ENE 5 mph 9 mph 77 % 0 in
17:22 29.8 °F 23.5 °F 30.4 in NE 5 mph 9 mph 77 % 0 in
17:27 29.8 °F 23.5 °F 30.4 in NE 2 mph 9 mph 77 % 0 in
17:32 29.7 °F 23.7 °F 30.4 in North 4 mph 9 mph 78 % 0 in
17:37 29.5 °F 23.5 °F 30.4 in NE 3 mph 8 mph 78 % 0 in
17:42 29.3 °F 23.4 °F 30.4 in NE 4 mph 6 mph 78 % 0 in
17:47 29.1 °F 23.2 °F 30.4 in NE 5 mph 6 mph 78 % 0 in
17:52 29.1 °F 23.2 °F 30.4 in NE 5 mph 6 mph 78 % 0 in
17:57 29.1 °F 23.2 °F 30.4 in NE 5 mph 6 mph 78 % 0 in
18:02 29.1 °F 23.2 °F 30.4 in NNE 4 mph 6 mph 78 % 0 in
18:07 28.9 °F 23 °F 30.4 in NNE 3 mph 8 mph 78 % 0 in
18:12 28.9 °F 23.2 °F 30.4 in NE 5 mph 8 mph 79 % 0 in
18:17 28.8 °F 23 °F 30.4 in NNE 4 mph 8 mph 79 % 0 in
18:22 28.6 °F 23.2 °F 30.4 in NNE 6 mph 9 mph 80 % 0 in
18:32 28.2 °F 23.2 °F 30.4 in ENE 5 mph 9 mph 81 % 0 in
18:37 28 °F 23 °F 30.4 in NE 4 mph 9 mph 81 % 0 in
18:42 28 °F 23 °F 30.4 in NE 7 mph 9 mph 81 % 0 in
18:47 27.9 °F 22.8 °F 30.4 in NE 5 mph 9 mph 81 % 0 in
18:52 27.7 °F 22.6 °F 30.4 in NE 4 mph 9 mph 81 % 0 in
18:57 27.7 °F 22.6 °F 30.4 in NE 4 mph 10 mph 81 % 0 in
19:02 27.5 °F 22.5 °F 30.4 in NE 6 mph 10 mph 81 % 0 in
19:07 27.3 °F 22.6 °F 30.4 in North 4 mph 10 mph 82 % 0 in
19:12 27.3 °F 22.6 °F 30.4 in NE 7 mph 9 mph 82 % 0 in
19:17 27.1 °F 22.5 °F 30.4 in NE 10 mph 10 mph 82 % 0 in
19:22 27.1 °F 22.5 °F 30.4 in NE 7 mph 10 mph 82 % 0 in
19:27 27.1 °F 22.5 °F 30.4 in NNW 4 mph 10 mph 82 % 0 in
19:32 27 °F 22.3 °F 30.4 in NNE 4 mph 10 mph 82 % 0 in
19:42 26.8 °F 22.3 °F 30.4 in NE 3 mph 8 mph 83 % 0 in
19:47 26.8 °F 22.1 °F 30.4 in NE 7 mph 8 mph 82 % 0 in
19:57 26.4 °F 21.9 °F 30.4 in NE 6 mph 9 mph 83 % 0 in
20:02 26.2 °F 21.7 °F 30.4 in NW 4 mph 9 mph 83 % 0 in
20:07 26.2 °F 21.7 °F 30.4 in NNE 6 mph 9 mph 83 % 0 in
20:17 25.9 °F 21.7 °F 30.4 in NE 1 mph 6 mph 84 % 0 in
20:27 25.7 °F 21.6 °F 30.4 in Calm   6 mph 84 % 0 in
20:32 25.5 °F 21.4 °F 30.4 in NNE 2 mph 6 mph 84 % 0 in
20:37 25.5 °F 21.4 °F 30.4 in North 2 mph 4 mph 84 % 0 in
20:42 25.5 °F 21.4 °F 30.4 in Calm   3 mph 84 % 0 in
20:47 25.3 °F 21.2 °F 30.4 in Calm   3 mph 84 % 0 in
20:52 25.2 °F 21.4 °F 30.4 in Calm   3 mph 85 % 0 in
20:57 25 °F 21.2 °F 30.4 in North 1 mph 3 mph 85 % 0 in
21:02 25 °F 21.2 °F 30.4 in Calm   3 mph 85 % 0 in
21:07 24.8 °F 21 °F 30.4 in ENE 1 mph 3 mph 85 % 0 in
21:17 24.4 °F 20.7 °F 30.4 in Calm   3 mph 85 % 0 in
21:22 24.4 °F 20.8 °F 30.4 in Calm   3 mph 86 % 0 in
21:27 24.4 °F 20.8 °F 30.4 in Calm   3 mph 86 % 0 in
21:32 24.4 °F 20.8 °F 30.4 in NNW 2 mph 3 mph 86 % 0 in
21:37 24.4 °F 20.8 °F 30.4 in Calm   3 mph 86 % 0 in
21:42 24.4 °F 20.8 °F 30.4 in NE 2 mph 4 mph 86 % 0 in
21:47 24.4 °F 20.8 °F 30.4 in NNW 1 mph 4 mph 86 % 0 in
21:52 24.3 °F 20.7 °F 30.4 in NE 2 mph 4 mph 86 % 0 in
21:57 24.3 °F 20.7 °F 30.4 in Calm   4 mph 86 % 0 in
22:02 24.3 °F 20.7 °F 30.4 in NNW 1 mph 4 mph 86 % 0 in
22:07 24.3 °F 20.7 °F 30.4 in NNW 1 mph 4 mph 86 % 0 in
22:12 24.3 °F 20.7 °F 30.4 in NNW 2 mph 3 mph 86 % 0 in
22:17 24.3 °F 20.7 °F 30.4 in Calm   3 mph 86 % 0 in
22:22 24.1 °F 20.5 °F 30.4 in NW 1 mph 4 mph 86 % 0 in
22:27 23.9 °F 20.3 °F 30.4 in Calm   4 mph 86 % 0 in
22:32 23.7 °F 20.1 °F 30.4 in Calm   4 mph 86 % 0 in
22:37 23.5 °F 20.3 °F 30.4 in Calm   3 mph 87 % 0 in
22:42 23.5 °F 20.3 °F 30.4 in Calm   2 mph 87 % 0 in
22:47 23.5 °F 20.3 °F 30.4 in Calm   1 mph 87 % 0 in
22:52 23.4 °F 20.1 °F 30.4 in Calm   1 mph 87 % 0 in
22:57 23.4 °F 20.1 °F 30.4 in Calm   1 mph 87 % 0 in
23:02 23.4 °F 20.1 °F 30.4 in Calm   1 mph 87 % 0 in
23:12 23.2 °F 19.9 °F 30.4 in Calm   1 mph 87 % 0 in
23:17 23.2 °F 19.9 °F 30.4 in Calm   2 mph 87 % 0 in
23:22 22.8 °F 19.6 °F 30.4 in Calm   2 mph 87 % 0 in
23:27 23 °F 19.9 °F 30.4 in Calm   2 mph 88 % 0 in
23:32 22.8 °F 19.6 °F 30.4 in Calm   2 mph 87 % 0 in
23:37 22.8 °F 19.6 °F 30.4 in Calm   1 mph 87 % 0 in
23:42 22.6 °F 19.4 °F 30.4 in Calm   1 mph 87 % 0 in
23:47 22.5 °F 19.2 °F 30.4 in Calm   1 mph 87 % 0 in
23:52 22.3 °F 19.2 °F 30.4 in Calm   1 mph 88 % 0 in
23:57 22.3 °F 19.2 °F 30.4 in Calm   1 mph 88 % 0 in
Meteo18
Compliments of Weather Underground - 4 mb

Script developed by  Jim McMurry - jmcmurry@mwt.net Adapted for the template by  Wim van der Kuil - Leuven-Template.eu

You find our weather info also at:

European Weather Network

Weather Underground

Equipment we use:

Weather-station
Davis Vue

Weather-program
Meteohub

Weather-server
Raspberry PI 2 B+

Provider
1 and 1

Davis Vue

Meteohub

Raspberry PI 2 B+

1 and 1